Time;durP1;ratioP1;P1;durP2;ratioP2;P2;SDS_P1;SDS_P2;PMS_P1;PMS_P2;Temp;Humidity;BMP_temperature;BMP_pressure;BME280_temperature;BME280_humidity;BME280_pressure;Samples;Min_cycle;Max_cycle;Signal;HPM_P1;HPM_P2
2022/05/26 00:01:08;;;;;;;33.80;7.20;;;13.80;99.90;;;;;;5159349;27;20053;-86
2022/05/26 00:03:39;;;;;;;39.58;8.98;;;13.80;99.90;;;;;;5148346;27;20104;-88
2022/05/26 00:06:07;;;;;;;30.40;7.22;;;13.80;99.90;;;;;;5119393;27;20054;-84
2022/05/26 00:08:34;;;;;;;38.97;8.20;;;13.90;99.90;;;;;;5121379;27;20380;-82
2022/05/26 00:11:00;;;;;;;39.80;7.80;;;13.90;99.90;;;;;;5120411;27;20550;-86
2022/05/26 00:13:26;;;;;;;38.72;7.20;;;13.90;99.90;;;;;;5144976;27;20067;-84
2022/05/26 00:15:52;;;;;;;46.10;7.97;;;13.90;99.90;;;;;;5140431;27;20046;-86
2022/05/26 00:18:18;;;;;;;32.75;7.18;;;13.90;99.90;;;;;;5139084;27;20099;-83
2022/05/26 00:20:44;;;;;;;36.20;7.07;;;13.90;99.90;;;;;;5158576;27;20485;-84
2022/05/26 00:23:10;;;;;;;38.53;8.05;;;13.90;99.90;;;;;;5133818;27;20390;-87
2022/05/26 00:25:36;;;;;;;42.45;8.93;;;13.90;99.90;;;;;;5136828;27;20043;-84
2022/05/26 00:28:02;;;;;;;47.70;9.10;;;13.90;99.90;;;;;;5142580;27;20554;-84
2022/05/26 00:30:28;;;;;;;35.60;7.05;;;13.90;99.90;;;;;;5140647;27;20103;-85
2022/05/26 00:32:54;;;;;;;42.75;7.75;;;13.90;99.90;;;;;;5138838;27;20042;-84
2022/05/26 00:35:20;;;;;;;50.25;8.93;;;13.90;99.90;;;;;;5138899;27;20087;-85
2022/05/26 00:37:46;;;;;;;46.17;8.98;;;13.90;99.90;;;;;;5150980;27;20075;-83
2022/05/26 00:40:14;;;;;;;36.47;7.82;;;13.90;99.90;;;;;;5137408;27;20062;-83
2022/05/26 00:42:40;;;;;;;43.97;10.48;;;13.90;99.90;;;;;;5134016;27;20039;-85
2022/05/26 00:45:08;;;;;;;45.90;8.55;;;13.90;99.90;;;;;;5158595;27;20042;-85
2022/05/26 00:47:39;;;;;;;43.92;8.55;;;13.90;99.90;;;;;;5156260;27;20039;-85
2022/05/26 00:50:12;;;;;;;41.17;8.35;;;13.90;99.90;;;;;;5140144;27;20111;-84
2022/05/26 00:52:42;;;;;;;50.97;8.30;;;13.90;99.90;;;;;;5125213;27;20134;-87
2022/05/26 00:55:16;;;;;;;46.38;7.95;;;13.90;99.90;;;;;;5118866;27;20072;-85
2022/05/26 00:57:46;;;;;;;48.53;8.60;;;13.90;99.90;;;;;;5133930;27;20477;-82
2022/05/26 01:00:21;;;;;;;45.33;8.30;;;13.90;99.90;;;;;;5139826;27;20129;-84
2022/05/26 01:02:56;;;;;;;43.58;8.63;;;13.90;99.90;;;;;;5155207;27;20054;-85
2022/05/26 01:05:26;;;;;;;37.70;9.43;;;13.90;99.90;;;;;;5158347;27;20465;-85
2022/05/26 01:07:52;;;;;;;50.58;8.65;;;13.90;99.90;;;;;;5102180;27;20126;-83
2022/05/26 01:10:18;;;;;;;47.70;8.80;;;13.90;99.90;;;;;;5135948;27;20087;-84
2022/05/26 01:12:44;;;;;;;46.63;8.75;;;13.90;99.90;;;;;;5128522;27;20466;-83
2022/05/26 01:15:17;;;;;;;37.35;7.88;;;13.90;99.90;;;;;;5137143;27;20478;-84
2022/05/26 01:18:28;;;;;;;44.80;9.30;;;13.90;99.90;;;;;;5154663;27;20050;-84
2022/05/26 01:21:25;;;;;;;51.88;9.73;;;13.90;99.90;;;;;;5128252;27;20055;-83
2022/05/26 01:24:32;;;;;;;50.20;10.25;;;13.90;99.90;;;;;;5136345;27;20564;-83
2022/05/26 01:27:14;;;;;;;48.63;9.90;;;13.90;99.90;;;;;;5150291;27;20077;-84
2022/05/26 01:30:04;;;;;;;47.03;9.23;;;13.90;99.90;;;;;;5136272;27;20047;-83
2022/05/26 01:32:43;;;;;;;49.50;8.68;;;13.80;99.90;;;;;;5154607;27;20381;-82
2022/05/26 01:35:22;;;;;;;40.60;9.23;;;13.80;99.90;;;;;;5158044;27;20047;-85
2022/05/26 01:38:09;;;;;;;45.25;8.07;;;13.80;99.90;;;;;;5137081;27;20043;-83
2022/05/26 01:40:46;;;;;;;43.58;9.27;;;13.80;99.90;;;;;;5156798;27;20442;-85
2022/05/26 01:43:27;;;;;;;53.47;10.32;;;13.80;99.90;;;;;;5127479;27;20386;-85
2022/05/26 01:46:13;;;;;;;45.63;8.82;;;13.70;99.90;;;;;;5138597;27;20050;-85
2022/05/26 01:49:02;;;;;;;54.75;10.77;;;13.70;99.90;;;;;;5137827;27;20051;-83
2022/05/26 01:51:43;;;;;;;47.25;10.40;;;13.80;99.90;;;;;;5155041;27;20083;-83
2022/05/26 01:54:18;;;;;;;46.67;9.15;;;13.70;99.90;;;;;;5157171;27;20082;-83
2022/05/26 01:57:19;;;;;;;48.42;8.98;;;13.70;99.90;;;;;;5136257;27;20061;-85
2022/05/26 01:59:51;;;;;;;56.95;9.02;;;13.70;99.90;;;;;;5096881;27;20062;-83
2022/05/26 02:02:28;;;;;;;46.83;8.27;;;13.70;99.90;;;;;;5139159;27;20401;-82
2022/05/26 02:05:08;;;;;;;48.35;9.18;;;13.70;99.90;;;;;;5117161;27;20500;-83
2022/05/26 02:07:36;;;;;;;54.17;9.40;;;13.70;99.90;;;;;;5150314;27;20035;-84
2022/05/26 02:10:06;;;;;;;42.50;8.48;;;13.70;99.90;;;;;;5157086;27;20034;-84
2022/05/26 02:12:35;;;;;;;48.47;9.88;;;13.70;99.90;;;;;;5154278;27;20038;-84
2022/05/26 02:15:13;;;;;;;44.67;9.15;;;13.70;99.90;;;;;;5138431;27;20051;-82
2022/05/26 02:17:43;;;;;;;48.22;8.65;;;13.70;99.90;;;;;;5155289;27;20054;-83
2022/05/26 02:20:14;;;;;;;52.42;9.77;;;13.70;99.90;;;;;;5155960;27;20042;-84
2022/05/26 02:22:50;;;;;;;44.05;7.70;;;13.60;99.90;;;;;;5119967;27;20039;-83
2022/05/26 02:25:19;;;;;;;48.55;7.38;;;13.70;99.90;;;;;;5153047;27;20074;-83
2022/05/26 02:27:53;;;;;;;43.70;7.70;;;13.60;99.90;;;;;;5155203;27;20098;-84
2022/05/26 02:30:22;;;;;;;46.97;7.43;;;13.60;99.90;;;;;;5136562;27;20074;-84
2022/05/26 02:32:50;;;;;;;40.10;7.07;;;13.60;99.90;;;;;;5137742;27;20504;-84
2022/05/26 02:35:17;;;;;;;38.65;6.72;;;13.60;99.90;;;;;;5132951;27;20084;-84
2022/05/26 02:37:47;;;;;;;42.17;7.57;;;13.60;99.90;;;;;;5118511;27;20070;-84
2022/05/26 02:40:14;;;;;;;45.88;8.30;;;13.60;99.90;;;;;;5137976;27;20102;-83
2022/05/26 02:42:52;;;;;;;43.17;7.30;;;13.60;99.90;;;;;;5120882;27;20050;-83
2022/05/26 02:45:55;;;;;;;32.22;7.00;;;13.60;99.90;;;;;;5154704;27;20586;-84
2022/05/26 02:48:58;;;;;;;41.22;7.80;;;13.60;99.90;;;;;;5155489;27;20057;-84
2022/05/26 02:51:37;;;;;;;42.75;6.63;;;13.60;99.90;;;;;;5125053;27;20094;-84
2022/05/26 02:54:21;;;;;;;37.00;6.97;;;13.60;99.90;;;;;;5116315;27;20050;-84
2022/05/26 02:56:55;;;;;;;38.47;5.78;;;13.60;99.90;;;;;;5148871;27;20046;-82
2022/05/26 02:59:39;;;;;;;25.13;6.03;;;13.50;99.90;;;;;;5156024;27;20389;-84
2022/05/26 03:02:33;;;;;;;24.17;4.85;;;13.50;99.90;;;;;;5153768;27;20549;-84
2022/05/26 03:05:18;;;;;;;15.85;3.60;;;13.50;99.90;;;;;;5155910;27;20047;-83
2022/05/26 03:07:47;;;;;;;13.48;3.30;;;13.40;99.90;;;;;;5135185;27;20481;-84
2022/05/26 03:10:15;;;;;;;24.50;4.80;;;13.40;99.90;;;;;;5135270;27;20047;-83
2022/05/26 03:12:41;;;;;;;15.00;2.80;;;13.40;99.90;;;;;;5116510;27;20035;-84
2022/05/26 03:15:08;;;;;;;14.27;2.88;;;13.30;99.90;;;;;;5134585;27;20043;-83
2022/05/26 03:17:35;;;;;;;17.02;2.78;;;13.30;99.90;;;;;;5154198;27;20042;-83
2022/05/26 03:20:01;;;;;;;11.98;2.47;;;13.30;99.90;;;;;;5137316;27;20031;-83
2022/05/26 03:22:26;;;;;;;9.10;1.85;;;13.30;99.90;;;;;;5134860;27;20091;-84
2022/05/26 03:24:53;;;;;;;16.88;2.47;;;13.20;99.90;;;;;;5155645;27;20184;-85
2022/05/26 03:27:19;;;;;;;8.68;1.83;;;13.20;99.90;;;;;;5134299;27;20039;-84
2022/05/26 03:29:45;;;;;;;9.95;1.85;;;13.20;99.90;;;;;;5154716;27;20047;-83
2022/05/26 03:32:11;;;;;;;16.17;2.45;;;13.10;99.90;;;;;;5154046;27;20049;-83
2022/05/26 03:42:52;;;;;;;8.52;1.77;;;13.00;99.90;;;;;;5145665;27;20051;-84
2022/05/26 03:45:20;;;;;;;12.45;2.10;;;12.90;99.90;;;;;;5133781;27;20546;-84
2022/05/26 03:47:46;;;;;;;11.18;1.88;;;12.90;99.90;;;;;;5133642;27;20047;-84
2022/05/26 03:50:12;;;;;;;9.73;1.77;;;12.80;99.90;;;;;;5135876;27;20053;-84
2022/05/26 03:52:38;;;;;;;14.65;1.95;;;12.80;99.90;;;;;;5153931;27;20031;-84
2022/05/26 03:55:07;;;;;;;11.82;1.98;;;12.80;99.90;;;;;;5136809;27;20098;-85
2022/05/26 03:57:33;;;;;;;13.27;2.28;;;12.80;99.90;;;;;;5145886;27;20171;-83
2022/05/26 04:00:00;;;;;;;12.48;3.10;;;12.80;99.90;;;;;;5134235;28;20130;-84
2022/05/26 04:02:26;;;;;;;6.90;1.85;;;12.80;99.90;;;;;;5147113;27;20095;-85
2022/05/26 04:04:53;;;;;;;12.18;3.28;;;12.80;99.90;;;;;;5154225;27;20117;-84
2022/05/26 04:07:18;;;;;;;13.35;1.83;;;12.80;99.90;;;;;;5142355;27;20051;-84
2022/05/26 04:09:44;;;;;;;11.25;2.42;;;12.80;99.90;;;;;;5120555;27;20042;-84
2022/05/26 04:12:11;;;;;;;6.75;1.40;;;12.70;99.90;;;;;;5133971;27;20466;-84
2022/05/26 04:14:38;;;;;;;12.35;2.40;;;12.80;99.90;;;;;;5153228;27;20039;-84
2022/05/26 04:17:04;;;;;;;10.85;2.45;;;12.80;99.90;;;;;;5154381;27;20030;-84
2022/05/26 04:19:30;;;;;;;10.77;2.33;;;12.80;99.90;;;;;;5151040;27;21168;-84
2022/05/26 04:24:41;;;;;;;10.38;1.73;;;12.80;99.90;;;;;;5118097;27;20497;-84
2022/05/26 04:27:07;;;;;;;11.50;1.55;;;12.80;99.90;;;;;;5153902;27;20039;-84
2022/05/26 04:29:35;;;;;;;7.40;1.40;;;12.80;99.90;;;;;;5144345;27;20520;-84
2022/05/26 04:32:02;;;;;;;12.13;1.83;;;12.80;99.90;;;;;;5154988;27;20105;-83
2022/05/26 04:34:27;;;;;;;8.15;1.75;;;12.80;99.90;;;;;;5133453;27;20481;-83
2022/05/26 04:36:53;;;;;;;12.95;1.92;;;12.80;99.90;;;;;;5115725;28;20068;-84
2022/05/26 04:39:19;;;;;;;9.40;1.80;;;12.90;99.90;;;;;;5133344;28;20161;-84
2022/05/26 04:41:45;;;;;;;7.22;1.80;;;12.90;99.90;;;;;;5151771;27;20045;-84
2022/05/26 04:44:14;;;;;;;8.30;1.60;;;12.90;99.90;;;;;;5144503;27;20049;-85
2022/05/26 04:46:40;;;;;;;15.30;2.38;;;13.00;99.90;;;;;;5135176;27;20047;-84
2022/05/26 04:49:07;;;;;;;8.30;1.70;;;13.10;99.90;;;;;;5141695;27;20030;-83
2022/05/26 04:51:34;;;;;;;6.55;1.45;;;13.10;99.90;;;;;;5158747;27;20423;-85
2022/05/26 04:54:01;;;;;;;7.55;1.45;;;13.10;99.90;;;;;;5155779;27;20059;-83
2022/05/26 04:56:27;;;;;;;11.75;1.73;;;13.10;99.90;;;;;;5158539;27;20043;-84
2022/05/26 04:58:53;;;;;;;8.45;1.35;;;13.20;99.90;;;;;;5129675;27;20051;-85
2022/05/26 05:01:20;;;;;;;10.43;1.48;;;13.10;99.90;;;;;;5136484;27;20047;-85
2022/05/26 05:03:47;;;;;;;9.75;2.00;;;13.10;99.90;;;;;;5137055;27;20047;-85
2022/05/26 05:06:17;;;;;;;8.10;1.60;;;13.10;99.90;;;;;;5118857;27;20047;-84
2022/05/26 05:08:43;;;;;;;7.38;1.77;;;13.20;99.90;;;;;;5118033;27;20042;-83
2022/05/26 05:11:10;;;;;;;7.45;1.08;;;13.20;99.90;;;;;;5137620;27;20043;-83
2022/05/26 05:13:37;;;;;;;9.18;1.90;;;13.20;99.90;;;;;;5119026;27;20043;-84
2022/05/26 05:16:08;;;;;;;9.40;1.55;;;13.20;99.90;;;;;;5118268;27;20039;-84
2022/05/26 05:18:34;;;;;;;9.07;1.60;;;13.20;99.90;;;;;;5145176;27;20030;-84
2022/05/26 05:21:10;;;;;;;5.72;1.58;;;14.40;99.90;;;;;;5156717;27;20045;-84
2022/05/26 05:23:43;;;;;;;10.30;1.75;;;13.20;99.90;;;;;;5138589;27;20047;-83
2022/05/26 05:26:14;;;;;;;7.97;2.05;;;13.20;99.90;;;;;;5156208;27;20043;-85
2022/05/26 05:28:44;;;;;;;11.85;1.52;;;13.30;99.90;;;;;;5138573;27;20477;-84
2022/05/26 05:31:16;;;;;;;9.63;1.60;;;13.30;99.90;;;;;;5156157;27;20443;-84
2022/05/26 05:33:53;;;;;;;16.15;1.95;;;13.40;99.90;;;;;;5110937;27;20078;-85
2022/05/26 05:36:24;;;;;;;8.70;1.33;;;13.50;99.90;;;;;;5156047;27;20043;-84
2022/05/26 05:38:49;;;;;;;6.80;1.60;;;13.50;99.90;;;;;;5139357;27;20047;-83
2022/05/26 05:41:15;;;;;;;13.45;1.88;;;13.70;99.90;;;;;;5137494;27;20133;-84
2022/05/26 05:43:42;;;;;;;11.57;1.83;;;13.70;99.90;;;;;;5136117;27;20200;-83
2022/05/26 05:46:08;;;;;;;7.70;1.17;;;13.80;99.90;;;;;;5136074;27;20047;-84
2022/05/26 05:48:35;;;;;;;10.70;2.38;;;13.90;99.90;;;;;;5138018;27;20550;-85
2022/05/26 05:51:01;;;;;;;6.20;1.10;;;14.00;99.90;;;;;;5132418;27;20455;-85
2022/05/26 05:53:27;;;;;;;6.28;1.33;;;14.10;99.90;;;;;;5121391;27;20131;-83
2022/05/26 05:55:53;;;;;;;5.90;1.38;;;14.10;99.90;;;;;;5154165;27;20038;-84
2022/05/26 05:58:19;;;;;;;7.53;1.80;;;14.20;99.90;;;;;;5135492;27;20045;-83
2022/05/26 06:00:44;;;;;;;7.05;1.27;;;14.30;99.90;;;;;;5131695;27;20059;-83
2022/05/26 06:03:10;;;;;;;3.42;1.02;;;14.30;99.90;;;;;;5115994;28;20101;-84
2022/05/26 06:05:39;;;;;;;7.03;1.23;;;14.40;99.90;;;;;;5113320;28;20082;-86
2022/05/26 06:08:06;;;;;;;8.52;1.42;;;14.50;99.90;;;;;;5130255;27;20074;-85
2022/05/26 06:10:32;;;;;;;3.25;1.10;;;14.50;99.90;;;;;;5118504;27;20042;-89
2022/05/26 06:12:58;;;;;;;9.32;1.70;;;14.60;99.90;;;;;;5131031;27;20036;-85
2022/05/26 06:15:25;;;;;;;6.30;1.10;;;14.70;99.90;;;;;;5114787;28;20045;-84
2022/05/26 06:17:51;;;;;;;6.97;1.17;;;14.70;99.90;;;;;;5114624;28;20035;-85
2022/05/26 06:20:17;;;;;;;5.53;1.58;;;14.60;99.90;;;;;;5115778;28;20074;-85
2022/05/26 06:22:45;;;;;;;4.72;0.80;;;14.50;99.90;;;;;;5127640;27;20486;-83
2022/05/26 06:25:12;;;;;;;7.43;1.30;;;14.50;99.90;;;;;;5134088;27;20072;-85
2022/05/26 06:30:26;;;;;;;9.82;1.17;;;14.40;99.90;;;;;;5114511;28;20040;-85
2022/05/26 06:38:30;;;;;;;7.00;1.00;;;14.50;99.90;;;;;;5114318;28;20104;-86
2022/05/26 06:40:56;;;;;;;4.78;1.10;;;14.60;99.90;;;;;;5095755;28;20507;-85
2022/05/26 06:43:22;;;;;;;5.97;1.30;;;14.60;99.90;;;;;;5114785;27;20036;-83
2022/05/26 06:45:48;;;;;;;8.23;1.65;;;14.70;99.90;;;;;;5113048;27;20393;-85
2022/05/26 06:48:15;;;;;;;6.95;1.15;;;14.70;99.90;;;;;;5109075;28;20041;-86
2022/05/26 06:50:41;;;;;;;6.13;1.25;;;14.80;99.90;;;;;;5115493;27;20499;-84
2022/05/26 06:53:07;;;;;;;7.13;1.20;;;14.80;99.90;;;;;;5114370;27;20105;-83
2022/05/26 06:55:33;;;;;;;7.53;1.10;;;14.80;99.90;;;;;;5135585;27;20071;-86
2022/05/26 06:57:59;;;;;;;7.85;1.40;;;14.90;99.90;;;;;;5131858;27;20499;-83
2022/05/26 07:00:25;;;;;;;7.25;1.85;;;14.90;99.90;;;;;;5131391;27;20047;-84
2022/05/26 07:02:54;;;;;;;5.88;1.33;;;14.90;99.90;;;;;;5116985;27;20401;-80
2022/05/26 07:05:20;;;;;;;5.28;1.35;;;14.90;99.90;;;;;;5147109;27;20043;-80
2022/05/26 07:07:46;;;;;;;6.72;2.17;;;14.90;99.90;;;;;;5144309;27;20114;-81
2022/05/26 07:10:13;;;;;;;6.53;1.00;;;14.90;99.90;;;;;;5140183;27;20035;-80
2022/05/26 07:12:44;;;;;;;3.55;0.90;;;14.90;99.90;;;;;;5139196;27;20079;-81
2022/05/26 07:15:13;;;;;;;7.75;1.48;;;14.90;99.90;;;;;;5100275;27;20062;-78
2022/05/26 07:17:39;;;;;;;6.88;0.90;;;15.00;99.90;;;;;;5122794;27;20054;-79
2022/05/26 07:20:06;;;;;;;7.95;1.40;;;15.00;99.90;;;;;;5130805;27;20043;-82
2022/05/26 07:22:32;;;;;;;3.17;0.88;;;15.00;99.90;;;;;;5100734;27;20046;-81
2022/05/26 07:24:58;;;;;;;3.75;0.88;;;15.10;99.90;;;;;;5116333;27;20051;-81
2022/05/26 07:27:24;;;;;;;6.75;1.58;;;15.10;99.90;;;;;;5152878;27;20378;-81
2022/05/26 07:29:50;;;;;;;5.50;1.10;;;15.20;99.90;;;;;;5145488;27;20038;-80
2022/05/26 07:32:16;;;;;;;7.22;1.30;;;15.20;99.90;;;;;;5130846;27;20453;-81
2022/05/26 07:34:43;;;;;;;8.30;1.42;;;15.20;99.90;;;;;;5119681;27;20086;-81
2022/05/26 07:42:38;;;;;;;7.78;1.17;;;15.30;99.90;;;;;;5114998;27;20485;-80
2022/05/26 07:45:08;;;;;;;8.90;1.40;;;15.30;99.90;;;;;;5134005;27;20064;-79
2022/05/26 07:47:34;;;;;;;5.55;0.93;;;15.30;99.90;;;;;;5135797;27;20035;-80
2022/05/26 07:50:00;;;;;;;12.60;1.33;;;15.40;99.90;;;;;;5133376;27;20427;-80
2022/05/26 07:52:26;;;;;;;7.50;1.38;;;15.40;99.90;;;;;;5134621;27;20031;-82
2022/05/26 07:54:52;;;;;;;9.10;1.33;;;15.50;99.90;;;;;;5132796;27;20070;-81
2022/05/26 07:57:26;;;;;;;7.10;1.60;;;15.50;99.90;;;;;;5134724;27;20050;-81
2022/05/26 07:59:53;;;;;;;11.88;1.85;;;15.50;99.90;;;;;;5143034;27;20051;-81
2022/05/26 08:02:20;;;;;;;10.43;2.47;;;15.50;99.90;;;;;;5152660;27;20043;-78
2022/05/26 08:04:47;;;;;;;10.32;2.42;;;15.60;99.90;;;;;;5143656;27;20035;-78
2022/05/26 08:07:14;;;;;;;4.75;1.15;;;15.60;99.90;;;;;;5121467;27;20047;-79
2022/05/26 08:09:40;;;;;;;7.18;1.38;;;15.70;99.90;;;;;;5142680;27;20416;-79
2022/05/26 08:12:11;;;;;;;6.57;1.17;;;15.70;99.90;;;;;;5132432;27;20043;-79
2022/05/26 08:14:38;;;;;;;4.25;0.77;;;15.80;99.90;;;;;;5137925;27;20096;-80
2022/05/26 08:17:04;;;;;;;4.95;0.77;;;15.70;99.90;;;;;;5134610;28;20034;-78
2022/05/26 08:19:30;;;;;;;3.63;0.80;;;15.80;99.90;;;;;;5145011;27;20552;-77
2022/05/26 08:21:56;;;;;;;6.50;1.23;;;15.80;99.90;;;;;;5156454;27;20123;-79
2022/05/26 08:24:24;;;;;;;5.63;0.80;;;15.70;99.90;;;;;;5132729;27;20046;-80
2022/05/26 08:26:50;;;;;;;10.43;1.55;;;15.80;99.90;;;;;;5122034;27;20043;-80
2022/05/26 08:29:16;;;;;;;8.20;1.00;;;15.80;99.90;;;;;;5151598;27;20118;-80
2022/05/26 08:31:42;;;;;;;6.53;0.95;;;15.90;99.90;;;;;;5122407;27;20144;-78
2022/05/26 08:34:08;;;;;;;5.22;1.10;;;16.10;99.90;;;;;;5152376;27;20039;-80
2022/05/26 08:36:35;;;;;;;9.48;1.23;;;16.20;99.90;;;;;;5135717;27;20488;-79
2022/05/26 08:39:03;;;;;;;4.85;1.13;;;16.30;99.90;;;;;;5155098;27;20050;-80
2022/05/26 08:41:52;;;;;;;6.63;1.48;;;16.30;99.90;;;;;;5126118;27;20028;-80
2022/05/26 08:44:37;;;;;;;6.47;1.30;;;16.30;99.90;;;;;;5138297;27;20125;-79
2022/05/26 08:47:20;;;;;;;8.15;1.58;;;16.20;99.90;;;;;;5138884;27;20070;-79
2022/05/26 08:50:14;;;;;;;4.38;1.15;;;16.60;99.90;;;;;;5154947;27;20790;-79
2022/05/26 08:52:46;;;;;;;7.88;1.00;;;16.60;99.90;;;;;;5152705;27;20486;-78
2022/05/26 08:55:16;;;;;;;4.40;1.05;;;16.70;99.90;;;;;;5137912;27;20043;-78
2022/05/26 08:58:04;;;;;;;7.80;1.40;;;16.60;99.90;;;;;;5123375;27;20397;-81
2022/05/26 09:00:30;;;;;;;7.10;1.33;;;16.50;99.90;;;;;;5138813;27;20063;-79
2022/05/26 09:02:59;;;;;;;3.38;0.77;;;16.50;99.90;;;;;;5156808;27;20051;-80
2022/05/26 09:05:34;;;;;;;6.55;1.48;;;16.40;99.90;;;;;;5140241;27;20044;-80
2022/05/26 09:14:38;;;;;;;3.50;0.65;;;16.30;99.90;;;;;;5094311;28;20051;-79
2022/05/26 09:17:10;;;;;;;10.57;0.98;;;16.30;99.90;;;;;;5113580;28;20238;-79
2022/05/26 09:19:45;;;;;;;4.00;1.10;;;16.30;99.90;;;;;;5127719;27;20040;-80
2022/05/26 09:22:27;;;;;;;;;;;16.40;99.90;;;;;;5136972;27;20042;-79
2022/05/26 09:24:53;;;;;;;5.00;1.15;;;16.40;99.90;;;;;;5149550;27;19926;-80
2022/05/26 09:27:38;;;;;;;6.88;1.08;;;16.50;99.90;;;;;;5149438;27;20035;-80
2022/05/26 09:30:18;;;;;;;5.78;1.00;;;16.60;99.90;;;;;;5136478;27;20041;-80
2022/05/26 09:32:45;;;;;;;4.53;0.95;;;16.60;99.90;;;;;;5118199;27;20096;-81
2022/05/26 09:35:26;;;;;;;4.90;1.40;;;16.50;99.90;;;;;;5135760;27;20047;-80
2022/05/26 09:37:57;;;;;;;2.42;0.70;;;16.60;99.90;;;;;;5135921;27;20127;-81
2022/05/26 09:40:29;;;;;;;1.90;0.60;;;16.70;99.90;;;;;;5139611;27;20039;-81
2022/05/26 09:43:04;;;;;;;4.30;0.90;;;16.80;99.90;;;;;;5138079;27;20401;-82
2022/05/26 09:45:44;;;;;;;6.25;1.23;;;16.70;99.90;;;;;;5101448;27;20130;-79
2022/05/26 09:48:30;;;;;;;3.53;0.88;;;16.70;99.90;;;;;;5121480;27;20066;-79
2022/05/26 09:51:20;;;;;;;6.68;1.10;;;16.60;99.90;;;;;;5153113;27;20054;-81
2022/05/26 09:53:45;;;;;;;5.15;1.15;;;16.60;99.90;;;;;;5145631;27;20039;-83
2022/05/26 09:56:26;;;;;;;4.13;1.10;;;16.50;99.90;;;;;;5151355;27;20035;-81
2022/05/26 09:58:52;;;;;;;4.93;0.88;;;16.60;99.90;;;;;;5138744;27;20122;-80
2022/05/26 10:01:21;;;;;;;4.97;1.00;;;16.60;99.90;;;;;;5137562;27;20094;-80
2022/05/26 10:04:05;;;;;;;8.88;0.90;;;16.70;99.90;;;;;;5136119;27;20594;-81
2022/05/26 10:06:42;;;;;;;4.68;0.85;;;16.70;99.90;;;;;;5122213;27;20035;-79
2022/05/26 10:09:15;;;;;;;4.63;0.77;;;16.80;99.90;;;;;;5116876;27;20051;-82
2022/05/26 10:12:01;;;;;;;5.80;0.95;;;16.80;99.90;;;;;;5136984;27;20049;-83
2022/05/26 10:14:33;;;;;;;6.68;1.00;;;16.90;99.90;;;;;;5139406;27;20536;-83
2022/05/26 10:17:19;;;;;;;7.03;1.25;;;16.90;99.90;;;;;;5152244;27;20046;-82
2022/05/26 10:20:01;;;;;;;6.57;1.10;;;17.00;99.90;;;;;;5156593;27;20094;-83
2022/05/26 10:22:49;;;;;;;3.83;1.20;;;17.10;99.90;;;;;;5154815;27;20042;-83
2022/05/26 10:25:32;;;;;;;6.40;1.10;;;17.20;99.90;;;;;;5135258;27;20047;-82
2022/05/26 10:28:25;;;;;;;5.90;0.98;;;17.20;99.90;;;;;;5117872;27;20043;-82
2022/05/26 10:31:10;;;;;;;4.40;1.02;;;17.30;99.90;;;;;;5137726;27;20046;-82
2022/05/26 10:33:42;;;;;;;5.70;1.30;;;17.40;99.90;;;;;;5138381;27;20039;-84
2022/05/26 10:36:35;;;;;;;7.75;1.17;;;17.50;99.90;;;;;;5156764;27;20461;-81
2022/05/26 10:39:19;;;;;;;5.88;1.05;;;17.60;99.90;;;;;;5136994;27;20100;-82
2022/05/26 10:42:01;;;;;;;8.10;1.40;;;17.70;99.90;;;;;;5117686;27;20046;-84
2022/05/26 10:44:40;;;;;;;7.07;1.45;;;17.70;99.90;;;;;;5105752;27;20498;-83
2022/05/26 10:47:29;;;;;;;7.88;1.27;;;17.80;99.90;;;;;;5116684;27;20051;-80
2022/05/26 10:50:19;;;;;;;5.50;1.50;;;17.90;99.90;;;;;;5095595;27;20184;-83
2022/05/26 10:53:08;;;;;;;6.15;1.88;;;17.90;99.90;;;;;;5134662;27;20082;-82
2022/05/26 10:56:05;;;;;;;5.88;1.00;;;17.90;99.90;;;;;;5075988;27;20059;-82
2022/05/26 10:58:37;;;;;;;6.07;1.67;;;17.80;99.90;;;;;;5131300;27;20513;-82
2022/05/26 11:01:24;;;;;;;4.80;1.27;;;17.90;99.90;;;;;;5133190;27;20066;-81
2022/05/26 11:03:54;;;;;;;7.40;1.90;;;17.90;99.90;;;;;;5128105;27;20399;-82
2022/05/26 11:06:31;;;;;;;3.58;1.00;;;17.90;99.90;;;;;;5113870;28;20108;-81
2022/05/26 11:09:08;;;;;;;5.38;1.80;;;17.90;99.90;;;;;;5114111;27;20098;-83
2022/05/26 11:11:41;;;;;;;8.48;1.65;;;17.90;99.90;;;;;;5117670;27;20035;-84
2022/05/26 11:17:21;;;;;;;7.53;1.10;;;17.80;99.90;;;;;;5129896;27;20088;-81
2022/05/26 11:17:22;;;;;;;6.53;1.15;;;17.80;99.90;;;;;;5118683;27;20052;-82
2022/05/26 11:20:03;;;;;;;5.65;1.50;;;17.80;99.90;;;;;;5116124;27;20083;-82
2022/05/26 11:22:29;;;;;;;10.77;1.65;;;17.80;99.90;;;;;;5114703;27;20036;-86
2022/05/26 11:24:57;;;;;;;7.07;1.55;;;17.90;99.90;;;;;;5117493;27;20074;-82
2022/05/26 11:27:29;;;;;;;6.93;1.42;;;18.10;99.90;;;;;;5125996;27;20086;-81
2022/05/26 11:30:00;;;;;;;5.68;1.00;;;18.20;99.90;;;;;;5113850;27;20039;-81
2022/05/26 11:38:35;;;;;;;4.28;1.02;;;18.00;99.90;;;;;;5126628;27;20043;-82
2022/05/26 11:41:01;;;;;;;6.95;1.33;;;18.00;99.90;;;;;;5130082;27;20118;-83
2022/05/26 11:44:12;;;;;;;4.93;1.30;;;18.00;99.90;;;;;;5123604;27;20122;-83
2022/05/26 11:46:56;;;;;;;11.15;1.55;;;18.00;99.90;;;;;;5079034;28;20055;-81
2022/05/26 11:49:43;;;;;;;7.20;1.27;;;18.10;99.90;;;;;;5116749;27;20046;-81
2022/05/26 11:52:25;;;;;;;8.45;1.35;;;18.20;99.90;;;;;;5129594;27;20512;-82
2022/05/26 11:54:55;;;;;;;7.43;1.20;;;18.10;99.90;;;;;;5130462;27;20059;-79
2022/05/26 11:57:38;;;;;;;8.13;1.40;;;18.10;99.90;;;;;;5123668;27;20097;-82
2022/05/26 12:00:21;;;;;;;5.28;1.45;;;18.10;99.90;;;;;;5139496;27;20057;-84
2022/05/26 12:02:53;;;;;;;6.97;1.48;;;18.10;99.90;;;;;;5150511;27;20046;-82
2022/05/26 12:05:31;;;;;;;5.90;1.38;;;18.00;99.90;;;;;;5134417;27;20128;-81
2022/05/26 12:08:03;;;;;;;8.20;1.73;;;18.00;99.90;;;;;;5115454;28;20047;-81
2022/05/26 12:10:38;;;;;;;6.57;1.05;;;18.10;99.90;;;;;;5148064;27;20046;-83
2022/05/26 12:13:19;;;;;;;7.18;1.25;;;18.10;99.90;;;;;;5151455;27;20039;-80
2022/05/26 12:16:17;;;;;;;7.25;1.52;;;18.20;99.90;;;;;;5138876;27;20043;-82
2022/05/26 12:18:59;;;;;;;6.75;1.60;;;18.10;99.90;;;;;;5140924;27;20038;-81
2022/05/26 12:21:28;;;;;;;8.18;1.20;;;18.00;99.90;;;;;;5114408;27;20591;-80
2022/05/26 12:23:55;;;;;;;5.10;1.60;;;18.00;99.90;;;;;;5133475;28;20505;-80
2022/05/26 12:26:30;;;;;;;5.43;1.05;;;18.00;99.90;;;;;;5133744;27;20112;-83
2022/05/26 12:29:43;;;;;;;4.57;1.20;;;18.00;99.90;;;;;;5134310;28;20043;-82
2022/05/26 12:32:26;;;;;;;9.70;1.33;;;18.00;99.90;;;;;;5074472;27;20507;-81
2022/05/26 12:35:12;;;;;;;7.53;1.40;;;18.00;99.90;;;;;;5124322;27;20115;-81
2022/05/26 12:38:07;;;;;;;10.07;1.42;;;18.10;99.90;;;;;;5122546;28;20047;-79
2022/05/26 12:41:00;;;;;;;8.57;1.30;;;18.20;99.90;;;;;;5122926;28;20055;-81
2022/05/26 12:43:40;;;;;;;8.32;1.63;;;18.20;99.90;;;;;;5141484;27;20066;-81
2022/05/26 12:46:32;;;;;;;7.72;1.88;;;18.30;99.90;;;;;;5149643;27;20165;-79
2022/05/26 12:49:25;;;;;;;5.38;1.25;;;18.30;99.90;;;;;;5115371;28;20051;-80
2022/05/26 12:52:10;;;;;;;12.95;1.70;;;18.30;99.90;;;;;;5137104;27;20493;-80
2022/05/26 12:55:05;;;;;;;9.60;1.50;;;18.20;99.90;;;;;;5154282;27;20581;-80
2022/05/26 12:57:36;;;;;;;8.70;2.15;;;18.20;99.90;;;;;;5135000;27;20078;-80
2022/05/26 13:00:25;;;;;;;6.22;1.17;;;18.00;99.90;;;;;;5116912;27;20050;-81
2022/05/26 13:02:54;;;;;;;7.65;1.35;;;17.90;99.90;;;;;;5151740;27;20054;-78
2022/05/26 13:05:21;;;;;;;8.57;1.30;;;17.80;99.90;;;;;;5144848;27;20419;-80
2022/05/26 13:07:50;;;;;;;9.75;1.55;;;17.70;99.90;;;;;;5137543;27;20119;-79
2022/05/26 13:10:19;;;;;;;5.70;1.42;;;17.60;99.90;;;;;;5151258;27;20050;-80
2022/05/26 13:12:46;;;;;;;7.13;1.27;;;17.50;99.90;;;;;;5118229;27;20125;-80
2022/05/26 13:15:21;;;;;;;4.57;1.40;;;17.60;99.90;;;;;;5154552;27;20043;-81
2022/05/26 13:17:48;;;;;;;8.55;1.45;;;17.60;99.90;;;;;;5158196;27;20562;-82
2022/05/26 13:20:34;;;;;;;8.43;1.80;;;17.70;99.90;;;;;;5136814;27;20419;-80
2022/05/26 13:23:00;;;;;;;10.55;1.67;;;17.70;99.90;;;;;;5137143;27;20078;-81
2022/05/26 13:25:36;;;;;;;7.65;1.30;;;17.70;99.90;;;;;;5136915;27;20481;-79
2022/05/26 13:28:05;;;;;;;6.22;1.73;;;17.70;99.90;;;;;;5135840;27;20043;-79
2022/05/26 13:33:38;;;;;;;7.63;1.20;;;17.80;99.90;;;;;;5138057;27;20058;-80
2022/05/26 13:36:05;;;;;;;11.77;2.30;;;17.80;99.90;;;;;;5157045;27;20481;-81
2022/05/26 13:38:46;;;;;;;13.30;3.08;;;17.90;99.90;;;;;;5139441;27;20043;-80
2022/05/26 13:41:19;;;;;;;8.40;1.50;;;17.90;99.90;;;;;;5134103;27;20035;-78
2022/05/26 13:43:47;;;;;;;5.30;1.27;;;18.00;99.90;;;;;;5137051;27;20035;-80
2022/05/26 13:46:23;;;;;;;12.30;1.23;;;18.10;99.90;;;;;;5136369;27;20046;-81
2022/05/26 13:48:54;;;;;;;6.38;1.80;;;18.10;99.90;;;;;;5143037;27;20035;-80
2022/05/26 13:51:29;;;;;;;12.00;1.88;;;18.10;99.90;;;;;;5131961;27;20039;-80
2022/05/26 13:54:13;;;;;;;;;;;18.20;99.90;;;;;;5136976;27;20478;-82